createdAt,value
2024-04-01T00:01:24.435Z,31.00
2024-04-01T00:09:47.976Z,24.80
2024-04-01T00:18:10.920Z,24.30
2024-04-01T00:26:33.733Z,28.50
2024-04-01T00:35:02.291Z,27.30
2024-04-01T00:43:26.802Z,26.00
2024-04-01T00:51:50.568Z,24.20
2024-04-01T01:00:13.544Z,28.30
2024-04-01T01:08:36.978Z,25.70
2024-04-01T01:16:59.889Z,28.50
2024-04-01T01:25:23.183Z,25.60
2024-04-01T01:33:45.853Z,38.40
2024-04-01T01:42:08.448Z,25.90
2024-04-01T01:50:31.003Z,28.00
2024-04-01T01:58:53.594Z,25.00
2024-04-01T02:07:16.147Z,30.10
2024-04-01T02:15:38.757Z,20.50
2024-04-01T02:24:01.363Z,28.10
2024-04-01T02:32:24.002Z,25.80
2024-04-01T02:40:47.052Z,37.50
2024-04-01T02:49:10.846Z,27.70
2024-04-01T02:57:33.757Z,27.30
2024-04-01T03:05:56.279Z,27.20
2024-04-01T03:14:18.817Z,26.40
2024-04-01T03:22:41.507Z,26.20
2024-04-01T03:31:07.950Z,27.40
2024-04-01T03:39:33.353Z,30.80
2024-04-01T03:47:55.840Z,18.80
2024-04-01T03:56:19.253Z,30.50
2024-04-01T04:04:41.956Z,28.90
2024-04-01T04:13:04.788Z,31.80
2024-04-01T04:21:27.468Z,32.80
2024-04-01T04:29:50.155Z,33.60
2024-04-01T04:38:12.825Z,35.20
2024-04-01T04:46:35.474Z,29.50
2024-04-01T04:54:58.771Z,33.20
2024-04-01T05:03:23.304Z,29.90
2024-04-01T05:11:49.474Z,27.10
2024-04-01T05:20:15.056Z,32.30
2024-04-01T05:28:38.436Z,38.40
2024-04-01T05:37:01.472Z,30.50
2024-04-01T05:45:25.233Z,30.60
2024-04-01T05:53:48.870Z,42.20
2024-04-01T06:02:11.733Z,37.90
2024-04-01T06:10:37.948Z,31.20
2024-04-01T06:19:00.559Z,32.30
2024-04-01T06:27:23.127Z,38.00
2024-04-01T06:35:45.675Z,30.40
2024-04-01T06:44:08.216Z,32.40
2024-04-01T06:52:30.865Z,28.50
2024-04-01T07:00:53.481Z,26.90
2024-04-01T07:09:16.060Z,30.70
2024-04-01T07:17:44.148Z,31.10
2024-04-01T07:26:06.700Z,25.00
2024-04-01T07:34:29.553Z,27.50
2024-04-01T07:42:52.260Z,42.30
2024-04-01T07:51:15.519Z,30.70
2024-04-01T07:59:38.203Z,35.20
2024-04-01T08:08:01.964Z,34.10
2024-04-01T08:16:25.225Z,38.30
2024-04-01T08:24:48.185Z,35.40
2024-04-01T08:33:11.725Z,41.40
2024-04-01T08:41:41.894Z,39.00
2024-04-01T08:50:07.027Z,34.80
2024-04-01T08:58:30.523Z,33.40
2024-04-01T09:06:53.317Z,37.70
2024-04-01T09:15:19.120Z,46.20
2024-04-01T09:23:43.184Z,45.80
2024-04-01T09:40:32.036Z,43.20
2024-04-01T09:48:58.854Z,49.00
2024-04-01T09:57:56.634Z,52.70
2024-04-01T10:06:55.717Z,48.70
2024-04-01T10:15:51.369Z,50.00
2024-04-01T10:24:32.131Z,46.70
2024-04-01T10:33:30.223Z,41.20
2024-04-01T10:42:33.955Z,45.90
2024-04-01T10:51:37.422Z,47.20
2024-04-01T11:00:28.961Z,52.20
2024-04-01T11:09:29.891Z,51.10
2024-04-01T11:18:19.293Z,53.20
2024-04-01T11:27:10.005Z,55.00
2024-04-01T11:35:50.468Z,54.40
2024-04-01T11:44:29.191Z,48.00
2024-04-01T12:01:37.974Z,62.10
2024-04-01T12:10:19.180Z,43.00
2024-04-01T12:18:45.029Z,46.30
2024-04-01T12:27:10.150Z,56.20
2024-04-01T12:35:37.986Z,53.40
2024-04-01T12:44:05.467Z,50.90
2024-04-01T12:52:45.089Z,52.30
2024-04-01T13:01:13.307Z,58.80
2024-04-01T13:09:47.462Z,72.20
2024-04-01T13:18:24.022Z,53.40
2024-04-01T13:27:10.576Z,57.80
2024-04-01T13:36:11.394Z,57.40
2024-04-01T13:45:06.413Z,79.10
2024-04-01T13:53:37.815Z,56.10
2024-04-01T14:02:35.487Z,67.00
2024-04-01T14:11:15.072Z,56.20
2024-04-01T14:19:58.495Z,68.10
2024-04-01T14:28:24.917Z,72.60
2024-04-01T14:36:49.354Z,60.50
2024-04-01T14:45:13.883Z,67.50
2024-04-01T14:53:38.252Z,49.00
2024-04-01T15:02:01.961Z,59.00
2024-04-01T15:10:27.259Z,66.40
2024-04-01T15:18:52.807Z,72.20
2024-04-01T15:27:17.224Z,53.90
2024-04-01T15:35:43.810Z,67.90
2024-04-01T15:44:09.044Z,53.00
2024-04-01T15:52:36.538Z,64.00
2024-04-01T16:01:00.851Z,87.00
2024-04-01T16:09:27.460Z,61.90
2024-04-01T16:17:52.137Z,66.30
2024-04-01T16:26:18.195Z,63.70
2024-04-01T16:34:45.658Z,52.00
2024-04-01T16:43:08.690Z,64.80
2024-04-01T16:51:34.726Z,67.30
2024-04-01T16:59:59.545Z,55.40
2024-04-01T17:08:24.917Z,66.00
2024-04-01T17:16:51.208Z,61.40
2024-04-01T17:25:18.754Z,54.20
2024-04-01T17:33:44.170Z,61.70
2024-04-01T17:42:08.920Z,61.80
2024-04-01T17:50:32.206Z,54.40
2024-04-01T17:58:55.974Z,51.90
2024-04-01T18:07:20.273Z,75.50
2024-04-01T18:15:42.965Z,54.30
2024-04-01T18:24:07.724Z,58.50
2024-04-01T18:32:31.559Z,60.90
2024-04-01T18:40:54.811Z,56.40
2024-04-01T18:49:19.042Z,60.20
2024-04-01T18:57:45.221Z,58.10
2024-04-01T19:06:08.039Z,58.50
2024-04-01T19:14:31.732Z,60.00
2024-04-01T19:22:55.752Z,83.90
2024-04-01T19:31:19.707Z,59.60
2024-04-01T19:39:44.458Z,62.00
2024-04-01T19:48:08.757Z,65.50
2024-04-01T19:56:34.578Z,64.90
2024-04-01T20:05:01.118Z,62.60
2024-04-01T20:13:25.440Z,48.80
2024-04-01T20:21:50.014Z,51.10
2024-04-01T20:30:33.505Z,60.20
2024-04-01T20:38:57.209Z,57.10
2024-04-01T20:47:24.416Z,45.50
2024-04-01T20:55:47.670Z,49.40
2024-04-01T21:04:18.863Z,55.80
2024-04-01T21:12:43.508Z,50.00
2024-04-01T21:21:11.792Z,62.40
2024-04-01T21:29:34.864Z,58.20
2024-04-01T21:37:57.396Z,61.50
2024-04-01T21:46:20.095Z,54.70
2024-04-01T21:54:43.266Z,49.80
2024-04-01T22:03:06.928Z,53.40
2024-04-01T22:11:29.822Z,52.10
2024-04-01T22:19:52.474Z,54.30
2024-04-01T22:28:15.045Z,49.10
2024-04-01T22:36:38.271Z,49.20
2024-04-01T22:45:00.784Z,58.50
2024-04-01T22:53:23.307Z,62.80
2024-04-01T23:01:46.101Z,71.00
2024-04-01T23:10:08.822Z,49.00
2024-04-01T23:18:31.526Z,52.90
2024-04-01T23:26:54.198Z,49.40
2024-04-01T23:35:16.917Z,64.60
2024-04-01T23:43:39.502Z,67.30
2024-04-01T23:52:04.354Z,60.20
